WetterOnline ( https://www.wetteronline.de )

Wetter aktuell Lauscha

Aktuelles Wetter: Neuhaus (851m)

6-stündlich | Neueste Meldungen
Ortszeit Temperatur Wetter
Fr, 12.07. 14:00 19.7° C bewölkt
Fr, 12.07. 8:00 16.1° C bedeckt
Fr, 12.07. 2:00 15.9° C bewölkt
Do, 11.07. 20:00 20.2° C wolkig
Do, 11.07. 14:00 20.1° C fast wolkenlos
Do, 11.07. 8:00 15.2° C bedeckt
Do, 11.07. 2:00 16.2° C Regen
Mi, 10.07. 20:00 17.8° C wolkig
Ortszeit Temperatur Wetter
Fr, 12.07. 16:00 21.0° C bewölkt
Fr, 12.07. 15:50 21.0° C bewölkt
Fr, 12.07. 15:40 20.8° C bedeckt
Fr, 12.07. 15:30 20.5° C wolkig
Fr, 12.07. 15:20 20.5° C wolkig
Fr, 12.07. 15:10 20.4° C bedeckt
Fr, 12.07. 15:00 20.0° C wolkig
Fr, 12.07. 14:30 19.9° C wolkig
Fr, 12.07. 14:00 19.7° C bewölkt
Fr, 12.07. 13:30 19.8° C bewölkt
Fr, 12.07. 13:00 19.4° C bewölkt
Ortszeit Relative Feuchte Sichtweite
Fr, 12.07. 14:00 87% 35 km
Fr, 12.07. 8:00 90% 30 km
Fr, 12.07. 2:00 90% 45 km
Do, 11.07. 20:00 66% >70 km
Do, 11.07. 14:00 66% 55 km
Do, 11.07. 8:00 94% 60 km
Do, 11.07. 2:00 97% 7 km
Mi, 10.07. 20:00 89% 40 km
Ortszeit Relative Feuchte Sichtweite
Fr, 12.07. 16:00 80% 65 km
Fr, 12.07. 15:50 80% -
Fr, 12.07. 15:40 82% -
Fr, 12.07. 15:30 81% 35 km
Fr, 12.07. 15:20 81% -
Fr, 12.07. 15:10 82% -
Fr, 12.07. 15:00 83% 40 km
Fr, 12.07. 14:30 88% 40 km
Fr, 12.07. 14:00 87% 35 km
Fr, 12.07. 13:30 87% 40 km
Fr, 12.07. 13:00 92% 28 km
Ortszeit Niederschlagsmenge Niederschlagsart
Fr, 12.07. 14:00 25 l/m2 in 6 Std. Regen
Fr, 12.07. 8:00 0.1 l/m2 in 12 Std. Regen
Fr, 12.07. 2:00 0.0 l/m2 in 6 Std. -
Do, 11.07. 20:00 0.0 l/m2 in 12 Std. -
Do, 11.07. 14:00 0.0 l/m2 in 6 Std. -
Do, 11.07. 8:00 6 l/m2 in 12 Std. Regen
Do, 11.07. 2:00 4 l/m2 in 6 Std. Regen
Mi, 10.07. 20:00 6 l/m2 in 12 Std. Regen
Ortszeit Niederschlagsmenge Niederschlagsart
Fr, 12.07. 16:00 0.0 l/m2 in 1 Std. -
Fr, 12.07. 15:50 keine Meldung -
Fr, 12.07. 15:40 keine Meldung -
Fr, 12.07. 15:30 0.0 l/m2 in 30 Min -
Fr, 12.07. 15:20 keine Meldung -
Fr, 12.07. 15:10 keine Meldung -
Fr, 12.07. 15:00 0.0 l/m2 in 1 Std. -
Fr, 12.07. 14:30 0.0 l/m2 in 30 Min -
Fr, 12.07. 14:00 0.0 l/m2 in 1 Std. Regen
Fr, 12.07. 13:30 0.0 l/m2 in 30 Min -
Fr, 12.07. 13:00 0.0 l/m2 in 1 Std. -
Ortszeit Stärke Spitze Richtung
km/h Bft. km/h Grad Sektor
Fr, 12.07. 14:00 14 3 32 220° SW
Fr, 12.07. 8:00 4 1 14 60° NO
Fr, 12.07. 2:00 6 1 13 70° O
Do, 11.07. 20:00 7 2 29 280° W
Do, 11.07. 14:00 14 3 25 240° SW
Do, 11.07. 8:00 13 3 22 240° SW
Do, 11.07. 2:00 9 2 22 210° SW
Mi, 10.07. 20:00 11 2 40 210° SW
Ortszeit Stärke Spitze Richtung
km/h Bft. km/h Grad Sektor
Fr, 12.07. 16:00 18 3 32 220° SW
Fr, 12.07. 15:50 18 3 - 220° SW
Fr, 12.07. 15:40 17 3 - 210° SW
Fr, 12.07. 15:30 17 3 31 220° SW
Fr, 12.07. 15:20 17 3 - 220° SW
Fr, 12.07. 15:10 14 3 - 220° SW
Fr, 12.07. 15:00 13 3 30 210° SW
Fr, 12.07. 14:30 15 3 28 230° SW
Fr, 12.07. 14:00 14 3 29 220° SW
Fr, 12.07. 13:30 17 3 28 200° S
Fr, 12.07. 13:00 17 3 30 200° S
Ortszeit Untergrenze Bedeckung Gattung
total tief tief mittel hoch
Fr, 12.07. 14:00 390 m 8/8 7/8 - - -
Fr, 12.07. 8:00 4500 m 8/8 8/8 - - -
Fr, 12.07. 2:00 1440 m 8/8 5/8 - - -
Do, 11.07. 20:00 1440 m 6/8 6/8 - - -
Do, 11.07. 14:00 810 m 1/8 1/8 - - -
Do, 11.07. 8:00 2700 m 8/8 8/8 - - -
Do, 11.07. 2:00 60 m 8/8 5/8 - - -
Mi, 10.07. 20:00 6300 m 8/8 1/8 - - -
Ortszeit Bedeckungsgrad in Achtel und Wolkenuntergrenze
Fr, 12.07. 16:00 4(420m) 7(3000m) 8(6000m)
Fr, 12.07. 15:50 4(420m) 7(3000m) 8(6000m)
Fr, 12.07. 15:40 8
Fr, 12.07. 15:30 1(480m) 4(3300m) 7(6300m)
Fr, 12.07. 15:20 1(480m) 4(3300m) 7(6300m)
Fr, 12.07. 15:10 8
Fr, 12.07. 15:00 4(540m) 7(3300m) 7(5100m)
Fr, 12.07. 14:30 4(330m) 7(5400m) 7(6300m)
Fr, 12.07. 14:00 5(390m) 7(840m) 8(6000m)
Fr, 12.07. 13:30 4(330m) 7(510m) 8(6000m)
Fr, 12.07. 13:00 4(240m) 7(450m) 8(6000m)
Ortszeit Stationsdruck (hPa) Tendenz (hPa in 3 Std.)
Fr, 12.07. 14:00 915 - 0,4
Fr, 12.07. 8:00 917 - 1,5
Fr, 12.07. 2:00 920 - 1,2
Do, 11.07. 20:00 921 - 0,2
Do, 11.07. 14:00 922 - 0,2
Do, 11.07. 8:00 921 + 0,4
Do, 11.07. 2:00 921 + 0,1
Mi, 10.07. 20:00 920 - 1,0
Ortszeit Stationsdruck (hPa) Tendenz (hPa in 3 Std.)
Fr, 12.07. 16:00 915 - 0,5
Fr, 12.07. 15:50 915 keine Meldung
Fr, 12.07. 15:40 915 keine Meldung
Fr, 12.07. 15:30 915 - 0,6
Fr, 12.07. 15:20 915 keine Meldung
Fr, 12.07. 15:10 915 keine Meldung
Fr, 12.07. 15:00 915 - 0,3
Fr, 12.07. 14:30 915 - 0,2
Fr, 12.07. 14:00 915 - 0,4
Fr, 12.07. 13:30 915 - 0,3
Fr, 12.07. 13:00 915 - 0,9
Ortszeit Schneehöhe (cm)
Fr, 12.07. 14:00 0
Fr, 12.07. 8:00 0
Fr, 12.07. 2:00 0
Do, 11.07. 20:00 0
Do, 11.07. 14:00 0
Do, 11.07. 8:00 0
Do, 11.07. 2:00 0
Mi, 10.07. 20:00 0
Ortszeit Schneehöhe (cm)
Fr, 12.07. 16:00 0
Fr, 12.07. 15:50 0
Fr, 12.07. 15:40 -
Fr, 12.07. 15:30 0
Fr, 12.07. 15:20 0
Fr, 12.07. 15:10 -
Fr, 12.07. 15:00 0
Fr, 12.07. 14:30 0
Fr, 12.07. 14:00 0
Fr, 12.07. 13:30 0
Fr, 12.07. 13:00 0
Link zu dieser Seite / Seite empfehlen

Das Wetter in ...